Newton, KS

5:59 AM CDT on May 26, 2017 (GMT -0500)
Newton City County

Weather History for KEWK - August, 2014

Change the Weather History Date:

Monday, August 18, 2014

  Actual Average Record
Temperature  
Mean Temperature 78 °F -  
Max Temperature 91 °F 87 °F 102 °F (2011)
Min Temperature 64 °F 64 °F 59 °F (2013)
Cooling Degree Days 12    
Growing Degree Days 28 (Base 50)    
Moisture  
Dew Point 63 °F    
Average Humidity 64    
Maximum Humidity 83    
Minimum Humidity 41    
Precipitation  
Precipitation 0.18 in - - ()
Sea Level Pressure  
Sea Level Pressure 29.92 in    
Wind  
Wind Speed 10 mph (South)    
Max Wind Speed 22 mph    
Max Gust Speed 32 mph    
Visibility 10 miles    
Events Thunderstorm    
Averages and records for this station are not official NWS values.
T = Trace of Precipitation, MM = Missing Value Source: NWS Daily Summary

Daily Weather History Graph

Daily Weather History Graph

Search for Another Location

Airport or City:

Trip Planner

Search our weather history database for the weather conditions in past years. The results will help you decide how hot, cold, wet, or windy it might be!

Date:

Astronomy

Aug. 18, 2014 Rise Set
Actual Time 6:46 AM CDT 8:18 PM CDT
Civil Twilight 6:18 AM CDT 8:46 PM CDT
Nautical Twilight 5:45 AM CDT 9:19 PM CDT
Astronomical Twilight 5:09 AM CDT 9:54 PM CDT
Moon 12:56 AM CDT (8/18) 3:21 PM CDT (8/18)
Length of Visible Light 14h 27m
Length of Day
13h 31m
Last Quarter, 38% of the Moon is Illuminated
Aug 18
Last Quarter
Aug 25
New
Sep 2
First Quarter
Sep 8
Full
Sep 15
Last Quarter

Hourly Weather History & Observations

Time (CDT) Temp. Heat Index Dew Point Humidity Pressure Visibility Wind Dir Wind Speed Gust Speed Precip Events Conditions
12:15 AM 69.8 °F - 60.8 °F 73% 30.08 in 10.0 mi North 21.9 mph 32.2 mph N/A Thunderstorm Overcast
12:35 AM 66.2 °F - 60.8 °F 83% 30.08 in 10.0 mi NNE 20.7 mph 28.8 mph 0.02 in Thunderstorm Overcast
12:55 AM 66.2 °F - 60.8 °F 83% 30.10 in 9.0 mi NNE 10.4 mph 25.3 mph 0.13 in Thunderstorm Thunderstorm
1:15 AM 66.2 °F - 60.8 °F 83% 30.05 in 10.0 mi NE 16.1 mph 25.3 mph 0.04 in Thunderstorm Thunderstorm
1:35 AM 66.2 °F - 60.8 °F 83% 30.04 in 10.0 mi East 11.5 mph - 0.04 in Thunderstorm Mostly Cloudy
1:55 AM 66.2 °F - 60.8 °F 83% 30.02 in 10.0 mi ESE 9.2 mph - 0.04 in Thunderstorm Partly Cloudy
2:15 AM 66.2 °F - 60.8 °F 83% 30.01 in 10.0 mi South 9.2 mph - 0.01 in Thunderstorm Partly Cloudy
2:35 AM 66.2 °F - 60.8 °F 83% 29.99 in 10.0 mi SE 6.9 mph - 0.01 in   Partly Cloudy
2:55 AM 66.2 °F - 60.8 °F 83% 29.97 in 10.0 mi ESE 6.9 mph - 0.01 in   Mostly Cloudy
3:15 AM 66.2 °F - 59.0 °F 78% 29.97 in 10.0 mi NNE 10.4 mph - N/A   Mostly Cloudy
3:35 AM 66.2 °F - 59.0 °F 78% 29.96 in 10.0 mi NNE 5.8 mph - N/A   Clear
3:55 AM 66.2 °F - 59.0 °F 78% 29.95 in 10.0 mi NNE 3.5 mph - N/A   Clear
4:15 AM 64.4 °F - 59.0 °F 83% 29.95 in 10.0 mi Calm Calm - N/A   Clear
4:35 AM 66.2 °F - 60.8 °F 83% 29.94 in 10.0 mi WSW 4.6 mph - N/A   Clear
4:55 AM 66.2 °F - 60.8 °F 83% 29.93 in 10.0 mi SW 5.8 mph - N/A   Clear
5:15 AM 66.2 °F - 60.8 °F 83% 29.93 in 10.0 mi SW 8.1 mph - N/A   Clear
5:35 AM 66.2 °F - 59.0 °F 78% 29.93 in 10.0 mi SW 4.6 mph - N/A   Clear
5:55 AM 64.4 °F - 59.0 °F 83% 29.92 in 10.0 mi SSW 4.6 mph - N/A   Clear
6:15 AM 64.4 °F - 59.0 °F 83% 29.92 in 10.0 mi South 3.5 mph - N/A   Clear
6:35 AM 64.4 °F - 59.0 °F 83% 29.92 in 10.0 mi South 5.8 mph - N/A   Clear
6:55 AM 64.4 °F - 59.0 °F 83% 29.93 in 10.0 mi West 5.8 mph - N/A   Clear
7:15 AM 66.2 °F - 60.8 °F 83% 29.94 in 10.0 mi West 4.6 mph - N/A   Clear
7:35 AM 66.2 °F - 60.8 °F 83% 29.94 in 10.0 mi West 6.9 mph - N/A   Clear
7:55 AM 68.0 °F - 60.8 °F 78% 29.93 in 10.0 mi West 6.9 mph - N/A   Clear
8:15 AM 69.8 °F - 62.6 °F 78% 29.93 in 10.0 mi WSW 8.1 mph - N/A   Clear
8:35 AM 69.8 °F - 62.6 °F 78% 29.93 in 10.0 mi West 9.2 mph - N/A   Clear
8:55 AM 71.6 °F - 62.6 °F 73% 29.93 in 10.0 mi West 10.4 mph - N/A   Clear
9:15 AM 71.6 °F - 62.6 °F 73% 29.93 in 10.0 mi WSW 10.4 mph - N/A   Clear
9:35 AM 73.4 °F - 62.6 °F 69% 29.93 in 10.0 mi WSW 11.5 mph - N/A   Clear
9:55 AM 75.2 °F - 62.6 °F 65% 29.93 in 10.0 mi WSW 8.1 mph - N/A   Clear
10:15 AM 78.8 °F - 62.6 °F 57% 29.93 in 10.0 mi WSW 6.9 mph - N/A   Clear
10:35 AM 80.6 °F 82.3 °F 64.4 °F 58% 29.93 in 10.0 mi SW 10.4 mph - N/A   Clear
10:55 AM 82.4 °F 84.6 °F 66.2 °F 58% 29.93 in 10.0 mi SSW 9.2 mph - N/A   Clear
11:15 AM 82.4 °F 84.6 °F 66.2 °F 58% 29.93 in 10.0 mi South 6.9 mph - N/A   Clear
11:35 AM 82.4 °F 84.6 °F 66.2 °F 58% 29.94 in 10.0 mi South 5.8 mph - N/A   Clear
11:55 AM 82.4 °F 84.6 °F 66.2 °F 58% 29.94 in 10.0 mi South 4.6 mph - N/A   Clear
12:15 PM 84.2 °F 86.6 °F 66.2 °F 55% 29.94 in 10.0 mi SSW 9.2 mph - N/A   Clear
12:35 PM 84.2 °F 86.6 °F 66.2 °F 55% 29.94 in 10.0 mi SSE 8.1 mph - N/A   Clear
12:55 PM 84.2 °F 87.3 °F 68.0 °F 58% 29.93 in 10.0 mi South 6.9 mph - N/A   Clear
1:15 PM 86.0 °F 88.2 °F 66.2 °F 51% 29.93 in 10.0 mi SSW 8.1 mph - N/A   Clear
1:35 PM 87.8 °F 90.4 °F 66.2 °F 49% - 10.0 mi South 5.8 mph - N/A   Clear
1:55 PM 87.8 °F 91.4 °F 68.0 °F 52% 29.94 in 10.0 mi SE 8.1 mph - N/A   Clear
2:15 PM 87.8 °F 91.4 °F 68.0 °F 52% 29.93 in 10.0 mi South 8.1 mph - N/A   Clear
2:35 PM 87.8 °F 91.4 °F 68.0 °F 52% 29.92 in 10.0 mi South 6.9 mph - N/A   Clear
2:55 PM 89.6 °F 93.4 °F 68.0 °F 49% 29.91 in 10.0 mi South 5.8 mph - N/A   Clear
3:15 PM 89.6 °F 93.4 °F 68.0 °F 49% 29.90 in 10.0 mi South 8.1 mph - N/A   Clear
3:35 PM 89.6 °F 93.4 °F 68.0 °F 49% 29.89 in 10.0 mi SSE 11.5 mph - N/A   Clear
3:55 PM 91.4 °F 95.4 °F 68.0 °F 46% 29.89 in 10.0 mi SSE 8.1 mph - N/A   Clear
4:15 PM 91.4 °F 94.0 °F 66.2 °F 43% 29.88 in 10.0 mi South 9.2 mph - N/A   Clear
4:35 PM 91.4 °F 94.0 °F 66.2 °F 43% 29.88 in 10.0 mi South 8.1 mph - N/A   Clear
4:55 PM 91.4 °F 94.0 °F 66.2 °F 43% 29.87 in 10.0 mi South 10.4 mph - N/A   Clear
5:15 PM 91.4 °F 94.0 °F 66.2 °F 43% 29.86 in 10.0 mi ESE 9.2 mph - N/A   Clear
5:35 PM 91.4 °F 94.0 °F 66.2 °F 43% 29.86 in 10.0 mi SSE 8.1 mph - N/A   Clear
6:15 PM 91.4 °F 94.0 °F 66.2 °F 43% 29.84 in 10.0 mi South 10.4 mph - N/A   Clear
6:35 PM 91.4 °F 93.2 °F 64.4 °F 41% 29.84 in 10.0 mi SSE 13.8 mph - N/A   Clear
6:55 PM 89.6 °F 91.1 °F 64.4 °F 43% 29.84 in 10.0 mi SSE 10.4 mph - N/A   Clear
7:15 PM 89.6 °F 92.2 °F 66.2 °F 46% 29.83 in 10.0 mi SSE 10.4 mph - N/A   Clear
7:35 PM 87.8 °F 89.4 °F 64.4 °F 46% 29.84 in 10.0 mi SSE 9.2 mph - N/A   Clear
7:55 PM 86.0 °F 87.3 °F 64.4 °F 48% 29.84 in 10.0 mi SSE 10.4 mph - N/A   Clear
8:15 PM 84.2 °F 85.6 °F 64.4 °F 51% 29.83 in 10.0 mi South 12.7 mph - N/A   Clear
8:35 PM 84.2 °F 86.6 °F 66.2 °F 55% 29.83 in 10.0 mi South 12.7 mph - N/A   Clear
8:55 PM 82.4 °F 84.6 °F 66.2 °F 58% 29.84 in 10.0 mi South 10.4 mph - N/A   Clear
9:15 PM 80.6 °F 81.8 °F 62.6 °F 54% 29.84 in 10.0 mi South 9.2 mph - N/A   Clear
9:35 PM 80.6 °F 81.5 °F 60.8 °F 51% 29.85 in 10.0 mi South 8.1 mph - N/A   Clear
9:55 PM 78.8 °F - 62.6 °F 57% 29.86 in 10.0 mi SSE 5.8 mph - N/A   Clear
10:15 PM 75.2 °F - 62.6 °F 65% 29.87 in 10.0 mi SE 6.9 mph - N/A   Clear
10:35 PM 75.2 °F - 62.6 °F 65% 29.87 in 10.0 mi SSE 8.1 mph - N/A   Clear
11:15 PM 73.4 °F - 62.6 °F 69% 29.86 in 10.0 mi SSE 5.8 mph - N/A   Clear
11:35 PM 73.4 °F - 60.8 °F 65% 29.86 in 10.0 mi South 8.1 mph - N/A   Clear
11:55 PM 73.4 °F - 60.8 °F 65% 29.86 in 10.0 mi South 6.9 mph - N/A   Clear